sensor_id;sensor_type;location;lat;lon;timestamp;temperature;humidity
4054;DHT22;2042;47.956;9.222;2023-05-31T05:38:21;14.30;1.00
4054;DHT22;2042;47.956;9.222;2023-05-31T05:40:46;14.70;1.00
4054;DHT22;2042;47.956;9.222;2023-05-31T05:43:13;15.30;1.00
4054;DHT22;2042;47.956;9.222;2023-05-31T05:45:38;15.90;1.00
4054;DHT22;2042;47.956;9.222;2023-05-31T05:48:04;16.40;1.00
4054;DHT22;2042;47.956;9.222;2023-05-31T05:50:30;17.00;1.00
4054;DHT22;2042;47.956;9.222;2023-05-31T05:52:55;17.40;1.00
4054;DHT22;2042;47.956;9.222;2023-05-31T05:55:21;17.90;1.00
4054;DHT22;2042;47.956;9.222;2023-05-31T05:57:47;18.30;1.00
4054;DHT22;2042;47.956;9.222;2023-05-31T06:00:13;18.60;1.00
4054;DHT22;2042;47.956;9.222;2023-05-31T06:02:41;18.90;1.00
4054;DHT22;2042;47.956;9.222;2023-05-31T06:05:07;19.20;1.00
4054;DHT22;2042;47.956;9.222;2023-05-31T06:07:33;19.50;1.00
4054;DHT22;2042;47.956;9.222;2023-05-31T06:09:59;19.50;1.00
4054;DHT22;2042;47.956;9.222;2023-05-31T06:12:25;19.50;1.00
4054;DHT22;2042;47.956;9.222;2023-05-31T06:14:51;19.40;1.00
4054;DHT22;2042;47.956;9.222;2023-05-31T06:17:17;19.40;1.00
4054;DHT22;2042;47.956;9.222;2023-05-31T06:19:43;19.50;1.00
4054;DHT22;2042;47.956;9.222;2023-05-31T06:22:08;19.70;1.00
4054;DHT22;2042;47.956;9.222;2023-05-31T06:24:34;19.80;1.00
4054;DHT22;2042;47.956;9.222;2023-05-31T06:27:00;20.10;1.00
4054;DHT22;2042;47.956;9.222;2023-05-31T06:29:28;20.40;1.00
4054;DHT22;2042;47.956;9.222;2023-05-31T06:31:54;20.70;1.00
4054;DHT22;2042;47.956;9.222;2023-05-31T06:34:21;21.10;1.00
4054;DHT22;2042;47.956;9.222;2023-05-31T06:36:47;21.50;1.00
4054;DHT22;2042;47.956;9.222;2023-05-31T06:39:12;21.80;1.00
4054;DHT22;2042;47.956;9.222;2023-05-31T06:41:38;22.00;1.00
4054;DHT22;2042;47.956;9.222;2023-05-31T06:44:04;22.20;1.00
4054;DHT22;2042;47.956;9.222;2023-05-31T06:46:29;22.40;1.00
4054;DHT22;2042;47.956;9.222;2023-05-31T06:48:55;22.60;1.00
4054;DHT22;2042;47.956;9.222;2023-05-31T06:51:21;22.70;1.00
4054;DHT22;2042;47.956;9.222;2023-05-31T06:53:51;22.80;1.00
4054;DHT22;2042;47.956;9.222;2023-05-31T06:56:17;22.90;1.00
4054;DHT22;2042;47.956;9.222;2023-05-31T06:58:43;23.30;1.00
4054;DHT22;2042;47.956;9.222;2023-05-31T07:01:09;23.80;1.00
4054;DHT22;2042;47.956;9.222;2023-05-31T07:03:35;24.30;1.00
4054;DHT22;2042;47.956;9.222;2023-05-31T07:06:00;24.50;1.00
4054;DHT22;2042;47.956;9.222;2023-05-31T07:08:26;24.70;1.00
4054;DHT22;2042;47.956;9.222;2023-05-31T07:10:53;24.70;1.00
4054;DHT22;2042;47.956;9.222;2023-05-31T07:13:19;25.00;1.00
4054;DHT22;2042;47.956;9.222;2023-05-31T07:15:44;25.50;1.00
4054;DHT22;2042;47.956;9.222;2023-05-31T07:18:10;25.70;1.00
4054;DHT22;2042;47.956;9.222;2023-05-31T07:20:36;26.00;1.00
4054;DHT22;2042;47.956;9.222;2023-05-31T07:23:02;26.30;1.00
4054;DHT22;2042;47.956;9.222;2023-05-31T07:25:27;26.60;1.00
4054;DHT22;2042;47.956;9.222;2023-05-31T07:27:54;26.50;1.00
4054;DHT22;2042;47.956;9.222;2023-05-31T07:30:20;26.70;1.00
4054;DHT22;2042;47.956;9.222;2023-05-31T07:32:46;26.90;1.00
4054;DHT22;2042;47.956;9.222;2023-05-31T07:35:11;27.00;1.00
4054;DHT22;2042;47.956;9.222;2023-05-31T07:37:37;27.20;1.00
4054;DHT22;2042;47.956;9.222;2023-05-31T07:40:03;27.20;1.00
4054;DHT22;2042;47.956;9.222;2023-05-31T07:42:32;27.30;1.00
4054;DHT22;2042;47.956;9.222;2023-05-31T07:44:58;27.40;1.00
4054;DHT22;2042;47.956;9.222;2023-05-31T07:47:24;27.70;1.00
4054;DHT22;2042;47.956;9.222;2023-05-31T07:49:50;27.70;1.00
4054;DHT22;2042;47.956;9.222;2023-05-31T07:52:17;28.00;1.00
4054;DHT22;2042;47.956;9.222;2023-05-31T07:54:47;28.60;1.00
4054;DHT22;2042;47.956;9.222;2023-05-31T07:57:14;29.00;1.00
4054;DHT22;2042;47.956;9.222;2023-05-31T07:59:40;29.30;1.00
4054;DHT22;2042;47.956;9.222;2023-05-31T08:02:06;29.70;1.00
4054;DHT22;2042;47.956;9.222;2023-05-31T08:04:31;29.90;1.00
4054;DHT22;2042;47.956;9.222;2023-05-31T08:06:57;29.80;1.00
4054;DHT22;2042;47.956;9.222;2023-05-31T08:09:23;30.00;1.00
4054;DHT22;2042;47.956;9.222;2023-05-31T08:11:48;30.30;1.00
4054;DHT22;2042;47.956;9.222;2023-05-31T08:14:14;30.30;1.00
4054;DHT22;2042;47.956;9.222;2023-05-31T08:16:40;30.20;1.00
4054;DHT22;2042;47.956;9.222;2023-05-31T08:19:05;30.20;1.00
4054;DHT22;2042;47.956;9.222;2023-05-31T08:21:31;30.20;1.00
4054;DHT22;2042;47.956;9.222;2023-05-31T08:23:57;30.30;1.00
4054;DHT22;2042;47.956;9.222;2023-05-31T08:26:24;30.50;1.00
4054;DHT22;2042;47.956;9.222;2023-05-31T08:28:51;30.70;1.00
4054;DHT22;2042;47.956;9.222;2023-05-31T08:31:17;30.80;1.00
4054;DHT22;2042;47.956;9.222;2023-05-31T08:33:58;30.90;1.00
4054;DHT22;2042;47.956;9.222;2023-05-31T08:36:25;31.10;1.00
4054;DHT22;2042;47.956;9.222;2023-05-31T08:38:51;31.40;1.00
4054;DHT22;2042;47.956;9.222;2023-05-31T08:41:17;31.60;1.00
4054;DHT22;2042;47.956;9.222;2023-05-31T08:43:44;31.90;1.00
4054;DHT22;2042;47.956;9.222;2023-05-31T08:46:11;32.20;1.00
4054;DHT22;2042;47.956;9.222;2023-05-31T08:48:53;32.30;1.00
4054;DHT22;2042;47.956;9.222;2023-05-31T08:51:20;32.40;1.00
4054;DHT22;2042;47.956;9.222;2023-05-31T08:53:48;32.50;1.00
4054;DHT22;2042;47.956;9.222;2023-05-31T08:56:15;32.60;1.00
4054;DHT22;2042;47.956;9.222;2023-05-31T08:58:42;32.90;1.00
4054;DHT22;2042;47.956;9.222;2023-05-31T09:01:08;33.00;1.00
4054;DHT22;2042;47.956;9.222;2023-05-31T09:03:34;33.00;1.00
4054;DHT22;2042;47.956;9.222;2023-05-31T09:06:00;33.10;1.00
4054;DHT22;2042;47.956;9.222;2023-05-31T09:08:26;33.30;1.00
4054;DHT22;2042;47.956;9.222;2023-05-31T09:10:51;33.40;1.00
4054;DHT22;2042;47.956;9.222;2023-05-31T09:13:18;33.70;1.00
4054;DHT22;2042;47.956;9.222;2023-05-31T09:18:14;33.30;1.00
4054;DHT22;2042;47.956;9.222;2023-05-31T09:20:41;33.50;1.00
4054;DHT22;2042;47.956;9.222;2023-05-31T10:20:11;36.70;1.00
4054;DHT22;2042;47.956;9.222;2023-05-31T11:06:06;36.00;1.00
4054;DHT22;2042;47.956;9.222;2023-05-31T11:08:34;36.10;1.00
4054;DHT22;2042;47.956;9.222;2023-05-31T11:13:59;35.90;1.00
4054;DHT22;2042;47.956;9.222;2023-05-31T11:19:16;35.80;1.00
4054;DHT22;2042;47.956;9.222;2023-05-31T11:21:50;35.00;1.00
4054;DHT22;2042;47.956;9.222;2023-05-31T11:24:36;34.90;1.00
4054;DHT22;2042;47.956;9.222;2023-05-31T11:27:03;35.40;1.00
4054;DHT22;2042;47.956;9.222;2023-05-31T11:32:19;35.30;1.00
4054;DHT22;2042;47.956;9.222;2023-05-31T11:34:59;34.70;1.00
4054;DHT22;2042;47.956;9.222;2023-05-31T11:37:31;34.70;1.00
4054;DHT22;2042;47.956;9.222;2023-05-31T11:40:01;34.70;1.00
4054;DHT22;2042;47.956;9.222;2023-05-31T11:42:37;35.00;1.00
4054;DHT22;2042;47.956;9.222;2023-05-31T11:45:07;35.30;1.00
4054;DHT22;2042;47.956;9.222;2023-05-31T11:50:06;36.30;1.00
4054;DHT22;2042;47.956;9.222;2023-05-31T11:52:32;36.10;1.00
4054;DHT22;2042;47.956;9.222;2023-05-31T11:55:04;36.20;1.00
4054;DHT22;2042;47.956;9.222;2023-05-31T11:57:31;36.60;1.00
4054;DHT22;2042;47.956;9.222;2023-05-31T12:00:05;36.70;1.00
4054;DHT22;2042;47.956;9.222;2023-05-31T12:02:41;36.50;1.00
4054;DHT22;2042;47.956;9.222;2023-05-31T12:05:11;36.40;1.00
4054;DHT22;2042;47.956;9.222;2023-05-31T12:07:37;36.20;1.00
4054;DHT22;2042;47.956;9.222;2023-05-31T12:10:05;36.20;1.00
4054;DHT22;2042;47.956;9.222;2023-05-31T12:12:32;36.20;1.00
4054;DHT22;2042;47.956;9.222;2023-05-31T12:14:58;35.90;1.00
4054;DHT22;2042;47.956;9.222;2023-05-31T12:17:30;35.70;1.00
4054;DHT22;2042;47.956;9.222;2023-05-31T12:19:55;36.00;1.00
4054;DHT22;2042;47.956;9.222;2023-05-31T12:22:21;36.30;1.00
4054;DHT22;2042;47.956;9.222;2023-05-31T12:24:51;36.20;1.00
4054;DHT22;2042;47.956;9.222;2023-05-31T12:27:19;36.30;1.00
4054;DHT22;2042;47.956;9.222;2023-05-31T12:29:45;36.30;1.00
4054;DHT22;2042;47.956;9.222;2023-05-31T12:32:11;36.20;1.00
4054;DHT22;2042;47.956;9.222;2023-05-31T12:34:37;36.10;1.00
4054;DHT22;2042;47.956;9.222;2023-05-31T12:37:11;35.60;1.00
4054;DHT22;2042;47.956;9.222;2023-05-31T12:39:37;35.40;1.00
4054;DHT22;2042;47.956;9.222;2023-05-31T12:42:06;34.80;1.00
4054;DHT22;2042;47.956;9.222;2023-05-31T12:44:34;34.50;1.00
4054;DHT22;2042;47.956;9.222;2023-05-31T12:47:07;34.30;1.00
4054;DHT22;2042;47.956;9.222;2023-05-31T12:49:35;34.00;1.00
4054;DHT22;2042;47.956;9.222;2023-05-31T12:54:29;33.90;1.00
4054;DHT22;2042;47.956;9.222;2023-05-31T12:56:57;34.00;1.00
4054;DHT22;2042;47.956;9.222;2023-05-31T12:59:23;34.40;1.00
4054;DHT22;2042;47.956;9.222;2023-05-31T13:01:50;34.70;1.00
4054;DHT22;2042;47.956;9.222;2023-05-31T13:04:16;35.10;1.00
4054;DHT22;2042;47.956;9.222;2023-05-31T13:06:41;35.30;1.00
4054;DHT22;2042;47.956;9.222;2023-05-31T13:09:07;35.50;1.00
4054;DHT22;2042;47.956;9.222;2023-05-31T13:11:39;35.80;1.00
4054;DHT22;2042;47.956;9.222;2023-05-31T13:14:07;35.80;1.00
4054;DHT22;2042;47.956;9.222;2023-05-31T13:16:34;35.50;1.00
4054;DHT22;2042;47.956;9.222;2023-05-31T13:19:01;35.00;1.00
4054;DHT22;2042;47.956;9.222;2023-05-31T13:21:28;35.10;1.00
4054;DHT22;2042;47.956;9.222;2023-05-31T13:23:55;35.20;1.00
4054;DHT22;2042;47.956;9.222;2023-05-31T13:26:23;35.60;1.00
4054;DHT22;2042;47.956;9.222;2023-05-31T13:28:49;36.20;1.00
4054;DHT22;2042;47.956;9.222;2023-05-31T13:31:15;36.20;1.00
4054;DHT22;2042;47.956;9.222;2023-05-31T13:33:42;36.10;1.00
4054;DHT22;2042;47.956;9.222;2023-05-31T13:36:08;36.10;1.00
4054;DHT22;2042;47.956;9.222;2023-05-31T13:38:34;36.10;1.00
4054;DHT22;2042;47.956;9.222;2023-05-31T13:41:00;36.10;1.00
4054;DHT22;2042;47.956;9.222;2023-05-31T13:43:25;36.00;1.00
4054;DHT22;2042;47.956;9.222;2023-05-31T13:45:52;35.70;1.00
4054;DHT22;2042;47.956;9.222;2023-05-31T13:48:18;35.70;1.00
4054;DHT22;2042;47.956;9.222;2023-05-31T13:50:44;35.40;1.00
4054;DHT22;2042;47.956;9.222;2023-05-31T13:53:10;35.40;1.00
4054;DHT22;2042;47.956;9.222;2023-05-31T13:55:37;35.60;1.00
4054;DHT22;2042;47.956;9.222;2023-05-31T13:58:05;35.70;1.00
4054;DHT22;2042;47.956;9.222;2023-05-31T14:00:31;35.50;1.00
4054;DHT22;2042;47.956;9.222;2023-05-31T14:02:57;35.30;1.00
4054;DHT22;2042;47.956;9.222;2023-05-31T14:05:23;35.10;1.00
4054;DHT22;2042;47.956;9.222;2023-05-31T14:07:50;35.10;1.00
4054;DHT22;2042;47.956;9.222;2023-05-31T14:10:16;35.00;1.00
4054;DHT22;2042;47.956;9.222;2023-05-31T14:12:41;35.00;1.00
4054;DHT22;2042;47.956;9.222;2023-05-31T14:15:07;34.90;1.00
4054;DHT22;2042;47.956;9.222;2023-05-31T14:17:33;34.80;1.00
4054;DHT22;2042;47.956;9.222;2023-05-31T14:19:59;35.00;1.00
4054;DHT22;2042;47.956;9.222;2023-05-31T14:22:25;35.20;1.00
4054;DHT22;2042;47.956;9.222;2023-05-31T14:24:51;35.10;1.00
4054;DHT22;2042;47.956;9.222;2023-05-31T14:27:17;34.90;1.00
4054;DHT22;2042;47.956;9.222;2023-05-31T14:29:44;34.90;1.00
4054;DHT22;2042;47.956;9.222;2023-05-31T14:32:10;34.70;1.00
4054;DHT22;2042;47.956;9.222;2023-05-31T14:34:42;34.10;1.00
4054;DHT22;2042;47.956;9.222;2023-05-31T14:37:08;33.60;1.00
4054;DHT22;2042;47.956;9.222;2023-05-31T14:39:34;33.40;1.00
4054;DHT22;2042;47.956;9.222;2023-05-31T14:41:59;33.50;1.00
4054;DHT22;2042;47.956;9.222;2023-05-31T14:44:25;33.80;1.00
4054;DHT22;2042;47.956;9.222;2023-05-31T14:46:51;33.80;1.00
4054;DHT22;2042;47.956;9.222;2023-05-31T14:49:23;33.40;1.00
4054;DHT22;2042;47.956;9.222;2023-05-31T14:51:54;33.10;1.00
4054;DHT22;2042;47.956;9.222;2023-05-31T14:54:23;33.00;1.00
4054;DHT22;2042;47.956;9.222;2023-05-31T14:56:49;33.10;1.00
